DLH2HK DAAG-EDDF
Flight info
| Callsign | DLH2HK |
|---|---|
| Flight time | 2h 13m |
| Altitude | 38000 |
| Route | OTARO1C OTARO DCT RISEP DCT LUNOR DCT ZETCO DCT LERMA DCT PIGOS DCT EKSID DCT NOSTA DCT NOPMU DCT ABESI DCT LADOL T163 EMPAX EMPAX5C |
| Aircraft | A320/M-SDE3FGHIRWY/LB1 |
Departure
| Time | 2026-05-08 18:39 |
|---|---|
| Airport | Houari Boumediene Airport (DAAG) |
Arrival
| Time | 2026-05-08 20:53 |
|---|---|
| Airport | Frankfurt Main Airport (EDDF) |
| Time | Latitude | Longitude | Altitude | Speed | Heading |
|---|---|---|---|---|---|
| 2026-05-08 18:12 | 36.69726 | 3.20478 | 70 ft | 0 kts | 69° |
| 2026-05-08 18:32 | 36.69719 | 3.20453 | 63 ft | 4 kts | 75° |
| 2026-05-08 18:32 | 36.69713 | 3.20420 | 64 ft | 4 kts | 82° |
| 2026-05-08 18:32 | 36.69711 | 3.20392 | 63 ft | 4 kts | 100° |
| 2026-05-08 18:33 | 36.69722 | 3.20367 | 64 ft | 4 kts | 152° |
| 2026-05-08 18:33 | 36.69744 | 3.20358 | 65 ft | 1 kts | 168° |
| 2026-05-08 18:35 | 36.69737 | 3.20360 | 60 ft | 6 kts | 165° |
| 2026-05-08 18:35 | 36.69680 | 3.20369 | 68 ft | 8 kts | 177° |
| 2026-05-08 18:35 | 36.69600 | 3.20369 | 70 ft | 12 kts | 181° |
| 2026-05-08 18:36 | 36.69521 | 3.20366 | 70 ft | 11 kts | 182° |
| 2026-05-08 18:36 | 36.69450 | 3.20404 | 68 ft | 16 kts | 115° |
| 2026-05-08 18:36 | 36.69441 | 3.20556 | 70 ft | 19 kts | 91° |
| 2026-05-08 18:36 | 36.69438 | 3.20724 | 70 ft | 20 kts | 91° |
| 2026-05-08 18:37 | 36.69422 | 3.20852 | 68 ft | 13 kts | 124° |
| 2026-05-08 18:37 | 36.69385 | 3.20965 | 70 ft | 20 kts | 90° |
| 2026-05-08 18:37 | 36.69385 | 3.21153 | 70 ft | 23 kts | 90° |
| 2026-05-08 18:37 | 36.69384 | 3.21354 | 70 ft | 24 kts | 90° |
| 2026-05-08 18:38 | 36.69383 | 3.21563 | 66 ft | 25 kts | 90° |
| 2026-05-08 18:38 | 36.69381 | 3.21778 | 71 ft | 25 kts | 90° |
| 2026-05-08 18:38 | 36.69379 | 3.21963 | 73 ft | 14 kts | 90° |
| 2026-05-08 18:38 | 36.69414 | 3.22067 | 80 ft | 15 kts | 53° |
| 2026-05-08 18:39 | 36.69574 | 3.22329 | 69 ft | 73 kts | 52° |
| 2026-05-08 18:39 | 36.70014 | 3.23048 | 82 ft | 132 kts | 53° |
| 2026-05-08 18:39 | 36.70646 | 3.24082 | 407 ft | 153 kts | 53° |
| 2026-05-08 18:39 | 36.71411 | 3.24987 | 1141 ft | 156 kts | 24° |
| 2026-05-08 18:40 | 36.72568 | 3.25093 | 1498 ft | 186 kts | 347° |
| 2026-05-08 18:40 | 36.73907 | 3.24663 | 1817 ft | 211 kts | 350° |
| 2026-05-08 18:40 | 36.75430 | 3.24285 | 2251 ft | 235 kts | 357° |
| 2026-05-08 18:40 | 36.77099 | 3.24606 | 2774 ft | 253 kts | 20° |
| 2026-05-08 18:41 | 36.78800 | 3.25303 | 3616 ft | 261 kts | 20° |
| 2026-05-08 18:41 | 36.79981 | 3.25795 | 4201 ft | 268 kts | 19° |
| 2026-05-08 18:41 | 36.81763 | 3.26537 | 4990 ft | 278 kts | 18° |
| 2026-05-08 18:41 | 36.83621 | 3.27309 | 5847 ft | 285 kts | 17° |
| 2026-05-08 18:42 | 36.85518 | 3.28093 | 6708 ft | 290 kts | 16° |
| 2026-05-08 18:42 | 36.87455 | 3.28889 | 7544 ft | 296 kts | 16° |
| 2026-05-08 18:42 | 36.89424 | 3.29697 | 8383 ft | 301 kts | 16° |
| 2026-05-08 18:42 | 36.91435 | 3.30524 | 9220 ft | 307 kts | 15° |
| 2026-05-08 18:43 | 36.93482 | 3.31366 | 10044 ft | 313 kts | 15° |
| 2026-05-08 18:43 | 36.95615 | 3.32241 | 10457 ft | 334 kts | 15° |
| 2026-05-08 18:43 | 36.97905 | 3.33182 | 10728 ft | 358 kts | 15° |
| 2026-05-08 18:43 | 37.00349 | 3.34192 | 10975 ft | 380 kts | 16° |
| 2026-05-08 18:44 | 37.02897 | 3.35245 | 11533 ft | 390 kts | 15° |
| 2026-05-08 18:44 | 37.05492 | 3.36317 | 12239 ft | 395 kts | 15° |
| 2026-05-08 18:44 | 37.08120 | 3.37403 | 12965 ft | 400 kts | 15° |
| 2026-05-08 18:44 | 37.10775 | 3.38504 | 13682 ft | 405 kts | 15° |
| 2026-05-08 18:45 | 37.13465 | 3.39621 | 14313 ft | 409 kts | 15° |
| 2026-05-08 18:45 | 37.16168 | 3.40783 | 14963 ft | 413 kts | 19° |
| 2026-05-08 18:45 | 37.18772 | 3.42373 | 15628 ft | 419 kts | 26° |
| 2026-05-08 18:45 | 37.21340 | 3.44118 | 16284 ft | 421 kts | 25° |
| 2026-05-08 18:46 | 37.23927 | 3.45871 | 16915 ft | 424 kts | 25° |
| 2026-05-08 18:46 | 37.26534 | 3.47633 | 17540 ft | 427 kts | 25° |
| 2026-05-08 18:46 | 37.29159 | 3.49408 | 18153 ft | 430 kts | 25° |
| 2026-05-08 18:46 | 37.31796 | 3.51197 | 18693 ft | 433 kts | 25° |
| 2026-05-08 18:47 | 37.34455 | 3.53005 | 19190 ft | 436 kts | 24° |
| 2026-05-08 18:47 | 37.37135 | 3.54829 | 19669 ft | 440 kts | 24° |
| 2026-05-08 18:47 | 37.39840 | 3.56673 | 20144 ft | 444 kts | 24° |
| 2026-05-08 18:47 | 37.42565 | 3.58532 | 20631 ft | 448 kts | 24° |
| 2026-05-08 18:48 | 37.45317 | 3.60406 | 21084 ft | 452 kts | 24° |
| 2026-05-08 18:48 | 37.48091 | 3.62295 | 21553 ft | 455 kts | 24° |
| 2026-05-08 18:48 | 37.50887 | 3.64202 | 22007 ft | 459 kts | 24° |
| 2026-05-08 18:48 | 37.53703 | 3.66128 | 22451 ft | 463 kts | 24° |
| 2026-05-08 18:49 | 37.56543 | 3.68073 | 22880 ft | 466 kts | 24° |
| 2026-05-08 18:49 | 37.59403 | 3.70032 | 23313 ft | 470 kts | 24° |
| 2026-05-08 18:49 | 37.62282 | 3.72007 | 23695 ft | 473 kts | 24° |
| 2026-05-08 18:49 | 37.65183 | 3.73997 | 24046 ft | 476 kts | 24° |
| 2026-05-08 18:50 | 37.68101 | 3.76002 | 24430 ft | 479 kts | 24° |
| 2026-05-08 18:50 | 37.71034 | 3.78017 | 24786 ft | 481 kts | 23° |
| 2026-05-08 18:50 | 37.73986 | 3.80045 | 25144 ft | 484 kts | 23° |
| 2026-05-08 18:50 | 37.76951 | 3.82087 | 25488 ft | 487 kts | 23° |
| 2026-05-08 18:51 | 37.79933 | 3.84140 | 25828 ft | 489 kts | 23° |
| 2026-05-08 18:51 | 37.82931 | 3.86205 | 26164 ft | 492 kts | 22° |
| 2026-05-08 18:51 | 37.85944 | 3.88283 | 26489 ft | 495 kts | 22° |
| 2026-05-08 18:51 | 37.88972 | 3.90374 | 26810 ft | 497 kts | 22° |
| 2026-05-08 18:52 | 37.92013 | 3.92478 | 27143 ft | 499 kts | 22° |
| 2026-05-08 18:52 | 37.95068 | 3.94594 | 27464 ft | 501 kts | 22° |
| 2026-05-08 18:52 | 37.98137 | 3.96722 | 27768 ft | 504 kts | 22° |
| 2026-05-08 18:52 | 38.01219 | 3.98858 | 28066 ft | 506 kts | 22° |
| 2026-05-08 18:53 | 38.04314 | 4.01001 | 28368 ft | 508 kts | 22° |
| 2026-05-08 18:53 | 38.07427 | 4.03159 | 28654 ft | 511 kts | 21° |
| 2026-05-08 18:53 | 38.10542 | 4.05326 | 29044 ft | 510 kts | 21° |
| 2026-05-08 18:53 | 38.13650 | 4.07497 | 29501 ft | 509 kts | 21° |
| 2026-05-08 18:54 | 38.16749 | 4.09662 | 29976 ft | 507 kts | 21° |
| 2026-05-08 18:54 | 38.19840 | 4.11819 | 30363 ft | 506 kts | 21° |
| 2026-05-08 18:54 | 38.22928 | 4.13970 | 30683 ft | 506 kts | 20° |
| 2026-05-08 18:54 | 38.26016 | 4.16125 | 31006 ft | 507 kts | 20° |
| 2026-05-08 18:55 | 38.32199 | 4.20454 | 31634 ft | 507 kts | 20° |
| 2026-05-08 18:55 | 38.35291 | 4.22622 | 31968 ft | 507 kts | 20° |
| 2026-05-08 18:55 | 38.38377 | 4.24792 | 32306 ft | 507 kts | 20° |
| 2026-05-08 18:56 | 38.41468 | 4.26967 | 32633 ft | 507 kts | 20° |
| 2026-05-08 18:56 | 38.44560 | 4.29141 | 32948 ft | 508 kts | 20° |
| 2026-05-08 18:56 | 38.47655 | 4.31317 | 33264 ft | 508 kts | 20° |
| 2026-05-08 18:56 | 38.50750 | 4.33497 | 33583 ft | 508 kts | 20° |
| 2026-05-08 18:57 | 38.53845 | 4.35679 | 33895 ft | 509 kts | 20° |
| 2026-05-08 18:57 | 38.55938 | 4.37158 | 34105 ft | 509 kts | 20° |
| 2026-05-08 18:57 | 38.60038 | 4.40062 | 34509 ft | 509 kts | 20° |
| 2026-05-08 18:57 | 38.63135 | 4.42256 | 34802 ft | 509 kts | 20° |
| 2026-05-08 18:58 | 38.66229 | 4.44446 | 35080 ft | 509 kts | 20° |
| 2026-05-08 18:58 | 38.69329 | 4.46639 | 35351 ft | 509 kts | 20° |
| 2026-05-08 18:58 | 38.72423 | 4.48837 | 35617 ft | 509 kts | 20° |
| 2026-05-08 18:58 | 38.75517 | 4.51032 | 35880 ft | 509 kts | 20° |
| 2026-05-08 18:59 | 38.78614 | 4.53226 | 36144 ft | 508 kts | 20° |
| 2026-05-08 18:59 | 38.81707 | 4.55423 | 36404 ft | 509 kts | 20° |
| 2026-05-08 18:59 | 38.84799 | 4.57628 | 36649 ft | 508 kts | 20° |
| 2026-05-08 18:59 | 38.87890 | 4.59833 | 36907 ft | 508 kts | 20° |
| 2026-05-08 19:00 | 38.90975 | 4.62035 | 37158 ft | 507 kts | 20° |
| 2026-05-08 19:00 | 38.94057 | 4.64238 | 37387 ft | 507 kts | 20° |
| 2026-05-08 19:00 | 38.97142 | 4.66443 | 37609 ft | 507 kts | 20° |
| 2026-05-08 19:00 | 39.00244 | 4.68574 | 37829 ft | 501 kts | 14° |
| 2026-05-08 19:01 | 39.03448 | 4.70246 | 38035 ft | 497 kts | 11° |
| 2026-05-08 19:01 | 39.09884 | 4.73489 | 38022 ft | 496 kts | 11° |
| 2026-05-08 19:02 | 39.16315 | 4.76733 | 38023 ft | 496 kts | 11° |
| 2026-05-08 19:02 | 39.22743 | 4.79980 | 38025 ft | 496 kts | 11° |
| 2026-05-08 19:03 | 39.29172 | 4.83234 | 38017 ft | 496 kts | 11° |
| 2026-05-08 19:03 | 39.35590 | 4.86498 | 38024 ft | 496 kts | 11° |
| 2026-05-08 19:04 | 39.42016 | 4.89765 | 38034 ft | 497 kts | 11° |
| 2026-05-08 19:04 | 39.48446 | 4.93050 | 38086 ft | 497 kts | 11° |
| 2026-05-08 19:05 | 39.54855 | 4.96326 | 38014 ft | 494 kts | 11° |
| 2026-05-08 19:05 | 39.61255 | 4.99608 | 38030 ft | 495 kts | 11° |
| 2026-05-08 19:06 | 39.67660 | 5.02899 | 38035 ft | 495 kts | 11° |
| 2026-05-08 19:06 | 39.74072 | 5.06187 | 38063 ft | 496 kts | 11° |
| 2026-05-08 19:07 | 39.80484 | 5.09475 | 38061 ft | 496 kts | 11° |
| 2026-05-08 19:07 | 39.86898 | 5.12780 | 38061 ft | 496 kts | 11° |
| 2026-05-08 19:08 | 39.93306 | 5.16104 | 38074 ft | 496 kts | 12° |
| 2026-05-08 19:08 | 39.99695 | 5.19419 | 38053 ft | 494 kts | 12° |
| 2026-05-08 19:09 | 40.06082 | 5.22726 | 38054 ft | 494 kts | 12° |
| 2026-05-08 19:09 | 40.12472 | 5.26046 | 38056 ft | 494 kts | 12° |
| 2026-05-08 19:10 | 40.18863 | 5.29383 | 38079 ft | 495 kts | 13° |
| 2026-05-08 19:10 | 40.25251 | 5.32728 | 38069 ft | 494 kts | 13° |
| 2026-05-08 19:11 | 40.31639 | 5.36073 | 38067 ft | 494 kts | 13° |
| 2026-05-08 19:11 | 40.38014 | 5.39432 | 38085 ft | 496 kts | 16° |
| 2026-05-08 19:12 | 40.44175 | 5.43689 | 38085 ft | 501 kts | 21° |
| 2026-05-08 19:12 | 40.50298 | 5.48068 | 38072 ft | 501 kts | 21° |
| 2026-05-08 19:13 | 40.56419 | 5.52452 | 38075 ft | 501 kts | 21° |
| 2026-05-08 19:13 | 40.62544 | 5.56830 | 38074 ft | 501 kts | 21° |
| 2026-05-08 19:14 | 40.68666 | 5.61216 | 38076 ft | 501 kts | 21° |
| 2026-05-08 19:14 | 40.74786 | 5.65617 | 38067 ft | 501 kts | 21° |
| 2026-05-08 19:15 | 40.80904 | 5.70025 | 38093 ft | 501 kts | 22° |
| 2026-05-08 19:15 | 40.87009 | 5.74437 | 38088 ft | 499 kts | 22° |
| 2026-05-08 19:16 | 40.93094 | 5.78840 | 38088 ft | 498 kts | 22° |
| 2026-05-08 19:16 | 40.99166 | 5.83239 | 38106 ft | 497 kts | 22° |
| 2026-05-08 19:17 | 41.05221 | 5.87640 | 38092 ft | 496 kts | 22° |
| 2026-05-08 19:17 | 41.11260 | 5.92043 | 38089 ft | 495 kts | 22° |
| 2026-05-08 19:18 | 41.17287 | 5.96454 | 38086 ft | 495 kts | 22° |
| 2026-05-08 19:18 | 41.23300 | 6.00854 | 38072 ft | 491 kts | 23° |
| 2026-05-08 19:19 | 41.29267 | 6.05229 | 38074 ft | 490 kts | 23° |
| 2026-05-08 19:19 | 41.35236 | 6.09596 | 38066 ft | 490 kts | 23° |
| 2026-05-08 19:20 | 41.41199 | 6.13980 | 38105 ft | 489 kts | 24° |
| 2026-05-08 19:20 | 41.47155 | 6.18380 | 38090 ft | 489 kts | 24° |
| 2026-05-08 19:21 | 41.52100 | 6.22040 | 38088 ft | 489 kts | 24° |
| 2026-05-08 19:21 | 41.58049 | 6.26442 | 38076 ft | 489 kts | 24° |
| 2026-05-08 19:22 | 41.63994 | 6.30848 | 38087 ft | 489 kts | 25° |
| 2026-05-08 19:22 | 41.69936 | 6.35274 | 38079 ft | 489 kts | 25° |
| 2026-05-08 19:23 | 41.75872 | 6.39709 | 38076 ft | 489 kts | 25° |
| 2026-05-08 19:23 | 41.81813 | 6.44140 | 38098 ft | 489 kts | 25° |
| 2026-05-08 19:24 | 41.87749 | 6.48577 | 38075 ft | 488 kts | 25° |
| 2026-05-08 19:24 | 41.93673 | 6.53032 | 38074 ft | 488 kts | 25° |
| 2026-05-08 19:25 | 41.99594 | 6.57487 | 38070 ft | 488 kts | 25° |
| 2026-05-08 19:25 | 42.05518 | 6.61936 | 38082 ft | 487 kts | 25° |
| 2026-05-08 19:26 | 42.11432 | 6.66389 | 38077 ft | 487 kts | 26° |
| 2026-05-08 19:26 | 42.17518 | 6.70224 | 38073 ft | 479 kts | 12° |
| 2026-05-08 19:27 | 42.23929 | 6.72598 | 38085 ft | 478 kts | 11° |
| 2026-05-08 19:27 | 42.30341 | 6.74957 | 38079 ft | 478 kts | 11° |
| 2026-05-08 19:28 | 42.36753 | 6.77332 | 38076 ft | 478 kts | 11° |
| 2026-05-08 19:28 | 42.43167 | 6.79709 | 38084 ft | 478 kts | 11° |
| 2026-05-08 19:29 | 42.49578 | 6.82094 | 38076 ft | 478 kts | 11° |
| 2026-05-08 19:29 | 42.55990 | 6.84485 | 38074 ft | 478 kts | 11° |
| 2026-05-08 19:30 | 42.62395 | 6.86872 | 38080 ft | 477 kts | 11° |
| 2026-05-08 19:30 | 42.68751 | 6.89246 | 38078 ft | 477 kts | 11° |
| 2026-05-08 19:31 | 42.75142 | 6.91639 | 38078 ft | 476 kts | 11° |
| 2026-05-08 19:31 | 42.81529 | 6.94036 | 38085 ft | 476 kts | 11° |
| 2026-05-08 19:32 | 42.87915 | 6.96439 | 38080 ft | 476 kts | 12° |
| 2026-05-08 19:32 | 42.94301 | 6.98843 | 38080 ft | 476 kts | 12° |
| 2026-05-08 19:33 | 43.00685 | 7.01250 | 38077 ft | 476 kts | 12° |
| 2026-05-08 19:33 | 43.07067 | 7.03669 | 38080 ft | 476 kts | 12° |
| 2026-05-08 19:34 | 43.13449 | 7.06095 | 38075 ft | 476 kts | 12° |
| 2026-05-08 19:34 | 43.19674 | 7.09269 | 38072 ft | 481 kts | 22° |
| 2026-05-08 19:35 | 43.25719 | 7.13221 | 38075 ft | 481 kts | 22° |
| 2026-05-08 19:35 | 43.31765 | 7.17163 | 38071 ft | 481 kts | 22° |
| 2026-05-08 19:36 | 43.37814 | 7.21100 | 38071 ft | 481 kts | 22° |
| 2026-05-08 19:36 | 43.43866 | 7.25042 | 38088 ft | 481 kts | 22° |
| 2026-05-08 19:37 | 43.49910 | 7.29001 | 38080 ft | 481 kts | 22° |
| 2026-05-08 19:37 | 43.55945 | 7.32971 | 38075 ft | 481 kts | 22° |
| 2026-05-08 19:38 | 43.61561 | 7.37971 | 38083 ft | 487 kts | 44° |
| 2026-05-08 19:38 | 43.66146 | 7.44855 | 38078 ft | 487 kts | 46° |
| 2026-05-08 19:39 | 43.70676 | 7.51822 | 38082 ft | 487 kts | 46° |
| 2026-05-08 19:39 | 43.75194 | 7.58807 | 38077 ft | 487 kts | 46° |
| 2026-05-08 19:40 | 43.79718 | 7.65792 | 38080 ft | 487 kts | 46° |
| 2026-05-08 19:40 | 43.84236 | 7.72777 | 38084 ft | 487 kts | 46° |
| 2026-05-08 19:41 | 43.88751 | 7.79767 | 38076 ft | 487 kts | 46° |
| 2026-05-08 19:41 | 43.93387 | 7.86578 | 38066 ft | 484 kts | 37° |
| 2026-05-08 19:42 | 43.99005 | 7.91512 | 38070 ft | 475 kts | 19° |
| 2026-05-08 19:42 | 44.05183 | 7.94669 | 38044 ft | 473 kts | 15° |
| 2026-05-08 19:43 | 44.11376 | 7.97774 | 38038 ft | 474 kts | 16° |
| 2026-05-08 19:43 | 44.17572 | 8.00890 | 38070 ft | 473 kts | 16° |
| 2026-05-08 19:44 | 44.23760 | 8.04007 | 38078 ft | 472 kts | 16° |
| 2026-05-08 19:44 | 44.29934 | 8.07125 | 38107 ft | 472 kts | 16° |
| 2026-05-08 19:45 | 44.36100 | 8.10231 | 38117 ft | 471 kts | 16° |
| 2026-05-08 19:45 | 44.42258 | 8.13349 | 38113 ft | 470 kts | 16° |
| 2026-05-08 19:46 | 44.48405 | 8.16475 | 38112 ft | 470 kts | 16° |
| 2026-05-08 19:46 | 44.57609 | 8.21158 | 38110 ft | 469 kts | 16° |
| 2026-05-08 19:47 | 44.63742 | 8.24278 | 38107 ft | 469 kts | 16° |
| 2026-05-08 19:47 | 44.69874 | 8.27409 | 38120 ft | 469 kts | 16° |
| 2026-05-08 19:48 | 44.76001 | 8.30547 | 38114 ft | 469 kts | 16° |
| 2026-05-08 19:48 | 44.82129 | 8.33685 | 38108 ft | 468 kts | 16° |
| 2026-05-08 19:49 | 44.88242 | 8.36836 | 38102 ft | 468 kts | 16° |
| 2026-05-08 19:49 | 44.94353 | 8.39996 | 38111 ft | 467 kts | 16° |
| 2026-05-08 19:50 | 45.00458 | 8.43152 | 38101 ft | 467 kts | 16° |
| 2026-05-08 19:50 | 45.06560 | 8.46315 | 38094 ft | 467 kts | 16° |
| 2026-05-08 19:51 | 45.12660 | 8.49485 | 38088 ft | 467 kts | 16° |
| 2026-05-08 19:51 | 45.18753 | 8.52654 | 38083 ft | 466 kts | 16° |
| 2026-05-08 19:52 | 45.24800 | 8.55808 | 38079 ft | 466 kts | 16° |
| 2026-05-08 19:52 | 45.30884 | 8.58988 | 38087 ft | 466 kts | 16° |
| 2026-05-08 19:53 | 45.36960 | 8.62171 | 38081 ft | 465 kts | 16° |
| 2026-05-08 19:53 | 45.43021 | 8.65359 | 38076 ft | 464 kts | 16° |
| 2026-05-08 19:54 | 45.49078 | 8.68547 | 38124 ft | 464 kts | 16° |
| 2026-05-08 19:54 | 45.55128 | 8.71732 | 38109 ft | 463 kts | 16° |
| 2026-05-08 19:55 | 45.61170 | 8.74933 | 38105 ft | 463 kts | 17° |
| 2026-05-08 19:55 | 45.67203 | 8.78142 | 38110 ft | 463 kts | 17° |
| 2026-05-08 19:56 | 45.73233 | 8.81350 | 38091 ft | 462 kts | 17° |
| 2026-05-08 19:56 | 45.79264 | 8.84566 | 38106 ft | 463 kts | 17° |
| 2026-05-08 19:57 | 45.85300 | 8.87782 | 38130 ft | 463 kts | 17° |
| 2026-05-08 19:57 | 45.91338 | 8.91006 | 38129 ft | 464 kts | 17° |
| 2026-05-08 19:58 | 45.97382 | 8.94250 | 38123 ft | 464 kts | 17° |
| 2026-05-08 19:58 | 46.03427 | 8.97498 | 38141 ft | 464 kts | 17° |
| 2026-05-08 19:59 | 46.09486 | 9.00759 | 38123 ft | 465 kts | 17° |
| 2026-05-08 19:59 | 46.15617 | 9.03595 | 38119 ft | 460 kts | 6° |
| 2026-05-08 20:00 | 46.21924 | 9.04020 | 38128 ft | 452 kts | 354° |
| 2026-05-08 20:00 | 46.28220 | 9.03730 | 38115 ft | 453 kts | 354° |
| 2026-05-08 20:01 | 46.34530 | 9.03476 | 38109 ft | 454 kts | 354° |
| 2026-05-08 20:01 | 46.40843 | 9.03213 | 38092 ft | 454 kts | 354° |
| 2026-05-08 20:02 | 46.47153 | 9.02938 | 38091 ft | 453 kts | 354° |
| 2026-05-08 20:02 | 46.53468 | 9.02659 | 38100 ft | 454 kts | 354° |
| 2026-05-08 20:03 | 46.59786 | 9.02381 | 38104 ft | 455 kts | 354° |
| 2026-05-08 20:03 | 46.66113 | 9.02109 | 38122 ft | 454 kts | 354° |
| 2026-05-08 20:04 | 46.71363 | 9.01884 | 38111 ft | 454 kts | 354° |
| 2026-05-08 20:04 | 46.77684 | 9.01601 | 38104 ft | 454 kts | 354° |
| 2026-05-08 20:05 | 46.83996 | 9.01323 | 38120 ft | 454 kts | 354° |
| 2026-05-08 20:05 | 46.90315 | 9.01044 | 38096 ft | 454 kts | 354° |
| 2026-05-08 20:06 | 46.96622 | 9.00762 | 38089 ft | 453 kts | 354° |
| 2026-05-08 20:06 | 47.02928 | 9.00490 | 38090 ft | 453 kts | 354° |
| 2026-05-08 20:07 | 47.09237 | 9.00215 | 38103 ft | 453 kts | 354° |
| 2026-05-08 20:07 | 47.15543 | 8.99924 | 38093 ft | 453 kts | 354° |
| 2026-05-08 20:08 | 47.21840 | 8.99640 | 38083 ft | 452 kts | 354° |
| 2026-05-08 20:08 | 47.28129 | 8.99359 | 38091 ft | 452 kts | 354° |
| 2026-05-08 20:09 | 47.34418 | 8.99078 | 38086 ft | 452 kts | 354° |
| 2026-05-08 20:09 | 47.40697 | 8.98796 | 38085 ft | 451 kts | 354° |
| 2026-05-08 20:10 | 47.46975 | 8.98525 | 38097 ft | 451 kts | 354° |
| 2026-05-08 20:10 | 47.53243 | 8.98240 | 38085 ft | 451 kts | 354° |
| 2026-05-08 20:11 | 47.59515 | 8.97950 | 38073 ft | 451 kts | 354° |
| 2026-05-08 20:11 | 47.65787 | 8.97654 | 38066 ft | 451 kts | 354° |
| 2026-05-08 20:12 | 47.72073 | 8.97367 | 37720 ft | 453 kts | 354° |
| 2026-05-08 20:12 | 47.75220 | 8.97222 | 37265 ft | 452 kts | 354° |
| 2026-05-08 20:12 | 47.78356 | 8.97084 | 36819 ft | 450 kts | 354° |
| 2026-05-08 20:13 | 47.81486 | 8.96946 | 36385 ft | 449 kts | 353° |
| 2026-05-08 20:13 | 47.84607 | 8.96809 | 35959 ft | 448 kts | 353° |
| 2026-05-08 20:13 | 47.87721 | 8.96673 | 35559 ft | 447 kts | 353° |
| 2026-05-08 20:13 | 47.90831 | 8.96530 | 35146 ft | 448 kts | 353° |
| 2026-05-08 20:14 | 47.93945 | 8.96385 | 34742 ft | 448 kts | 352° |
| 2026-05-08 20:14 | 47.97058 | 8.96240 | 34346 ft | 447 kts | 352° |
| 2026-05-08 20:14 | 48.00168 | 8.96096 | 33932 ft | 447 kts | 352° |
| 2026-05-08 20:14 | 48.03274 | 8.95952 | 33463 ft | 447 kts | 352° |
| 2026-05-08 20:15 | 48.06388 | 8.95807 | 33011 ft | 448 kts | 352° |
| 2026-05-08 20:15 | 48.09503 | 8.95663 | 32587 ft | 448 kts | 353° |
| 2026-05-08 20:15 | 48.12631 | 8.95517 | 32091 ft | 452 kts | 353° |
| 2026-05-08 20:15 | 48.15789 | 8.95380 | 31571 ft | 456 kts | 355° |
| 2026-05-08 20:16 | 48.18977 | 8.95663 | 31090 ft | 462 kts | 1° |
| 2026-05-08 20:16 | 48.22177 | 8.96148 | 30625 ft | 463 kts | 1° |
| 2026-05-08 20:16 | 48.25387 | 8.96640 | 30155 ft | 465 kts | 1° |
| 2026-05-08 20:16 | 48.28607 | 8.97132 | 29616 ft | 466 kts | 2° |
| 2026-05-08 20:17 | 48.31835 | 8.97624 | 29089 ft | 465 kts | 2° |
| 2026-05-08 20:17 | 48.35022 | 8.98109 | 28549 ft | 455 kts | 2° |
| 2026-05-08 20:17 | 48.38138 | 8.98590 | 28038 ft | 446 kts | 2° |
| 2026-05-08 20:17 | 48.41193 | 8.99062 | 27524 ft | 438 kts | 2° |
| 2026-05-08 20:18 | 48.44197 | 8.99524 | 27025 ft | 430 kts | 3° |
| 2026-05-08 20:18 | 48.47151 | 8.99977 | 26532 ft | 423 kts | 3° |
| 2026-05-08 20:18 | 48.50058 | 9.00417 | 26050 ft | 416 kts | 3° |
| 2026-05-08 20:18 | 48.52918 | 9.00849 | 25577 ft | 410 kts | 3° |
| 2026-05-08 20:19 | 48.55737 | 9.01277 | 25107 ft | 404 kts | 3° |
| 2026-05-08 20:19 | 48.58518 | 9.01705 | 24645 ft | 399 kts | 3° |
| 2026-05-08 20:19 | 48.61259 | 9.02130 | 24192 ft | 394 kts | 4° |
| 2026-05-08 20:19 | 48.63968 | 9.02572 | 23747 ft | 389 kts | 5° |
| 2026-05-08 20:20 | 48.66634 | 9.03121 | 23287 ft | 384 kts | 6° |
| 2026-05-08 20:20 | 48.69258 | 9.03748 | 22819 ft | 380 kts | 7° |
| 2026-05-08 20:20 | 48.71851 | 9.04409 | 22357 ft | 376 kts | 7° |
| 2026-05-08 20:20 | 48.74416 | 9.05069 | 21909 ft | 372 kts | 7° |
| 2026-05-08 20:21 | 48.76954 | 9.05712 | 21462 ft | 368 kts | 7° |
| 2026-05-08 20:21 | 48.79472 | 9.06335 | 21021 ft | 365 kts | 7° |
| 2026-05-08 20:21 | 48.81970 | 9.06941 | 20586 ft | 362 kts | 7° |
| 2026-05-08 20:21 | 48.84476 | 9.07541 | 20195 ft | 358 kts | 7° |
| 2026-05-08 20:22 | 48.86921 | 9.08125 | 19822 ft | 354 kts | 7° |
| 2026-05-08 20:22 | 48.89309 | 9.08664 | 19458 ft | 349 kts | 5° |
| 2026-05-08 20:22 | 48.91710 | 9.09075 | 19095 ft | 345 kts | 3° |
| 2026-05-08 20:22 | 48.94089 | 9.09400 | 18736 ft | 342 kts | 2° |
| 2026-05-08 20:23 | 48.96450 | 9.09693 | 18384 ft | 339 kts | 2° |
| 2026-05-08 20:23 | 48.98790 | 9.09984 | 17976 ft | 336 kts | 2° |
| 2026-05-08 20:23 | 49.01114 | 9.10286 | 17583 ft | 334 kts | 3° |
| 2026-05-08 20:23 | 49.03423 | 9.10598 | 17185 ft | 332 kts | 3° |
| 2026-05-08 20:24 | 49.05717 | 9.10920 | 16790 ft | 330 kts | 3° |
| 2026-05-08 20:24 | 49.08069 | 9.11405 | 16409 ft | 360 kts | 7° |
| 2026-05-08 20:24 | 49.10671 | 9.12097 | 16020 ft | 398 kts | 9° |
| 2026-05-08 20:24 | 49.13461 | 9.12911 | 15638 ft | 414 kts | 9° |
| 2026-05-08 20:25 | 49.16297 | 9.13781 | 15264 ft | 416 kts | 10° |
| 2026-05-08 20:25 | 49.19129 | 9.14659 | 14899 ft | 415 kts | 10° |
| 2026-05-08 20:25 | 49.21972 | 9.15376 | 14532 ft | 412 kts | 2° |
| 2026-05-08 20:25 | 49.24817 | 9.15153 | 14174 ft | 409 kts | 353° |
| 2026-05-08 20:26 | 49.27643 | 9.14704 | 13813 ft | 408 kts | 353° |
| 2026-05-08 20:26 | 49.30456 | 9.14249 | 13414 ft | 405 kts | 352° |
| 2026-05-08 20:26 | 49.33254 | 9.13790 | 13014 ft | 403 kts | 352° |
| 2026-05-08 20:26 | 49.36028 | 9.13332 | 12628 ft | 400 kts | 352° |
| 2026-05-08 20:27 | 49.38788 | 9.12876 | 12243 ft | 397 kts | 352° |
| 2026-05-08 20:27 | 49.41529 | 9.12423 | 12066 ft | 395 kts | 353° |
| 2026-05-08 20:27 | 49.44264 | 9.11970 | 12111 ft | 396 kts | 353° |
| 2026-05-08 20:27 | 49.47003 | 9.11515 | 12105 ft | 396 kts | 353° |
| 2026-05-08 20:28 | 49.49740 | 9.11061 | 12107 ft | 396 kts | 353° |
| 2026-05-08 20:28 | 49.52480 | 9.10608 | 12111 ft | 396 kts | 353° |
| 2026-05-08 20:28 | 49.55221 | 9.10154 | 12117 ft | 396 kts | 353° |
| 2026-05-08 20:28 | 49.57960 | 9.09698 | 12116 ft | 396 kts | 353° |
| 2026-05-08 20:29 | 49.60695 | 9.09241 | 12114 ft | 396 kts | 353° |
| 2026-05-08 20:29 | 49.63436 | 9.08781 | 12117 ft | 396 kts | 353° |
| 2026-05-08 20:29 | 49.66168 | 9.08324 | 12115 ft | 396 kts | 353° |
| 2026-05-08 20:29 | 49.68910 | 9.07869 | 12103 ft | 396 kts | 353° |
| 2026-05-08 20:30 | 49.71646 | 9.07415 | 12077 ft | 396 kts | 353° |
| 2026-05-08 20:30 | 49.74339 | 9.06972 | 11724 ft | 383 kts | 353° |
| 2026-05-08 20:30 | 49.76957 | 9.06676 | 11360 ft | 372 kts | 1° |
| 2026-05-08 20:30 | 49.79437 | 9.07519 | 10997 ft | 363 kts | 22° |
| 2026-05-08 20:31 | 49.81506 | 9.09631 | 10624 ft | 354 kts | 44° |
| 2026-05-08 20:31 | 49.83039 | 9.12546 | 10264 ft | 345 kts | 53° |
| 2026-05-08 20:31 | 49.84440 | 9.15487 | 10100 ft | 331 kts | 50° |
| 2026-05-08 20:31 | 49.86153 | 9.17729 | 10123 ft | 321 kts | 26° |
| 2026-05-08 20:32 | 49.88263 | 9.18703 | 10127 ft | 316 kts | 2° |
| 2026-05-08 20:32 | 49.90417 | 9.18263 | 10128 ft | 312 kts | 338° |
| 2026-05-08 20:32 | 49.92235 | 9.16507 | 10128 ft | 308 kts | 313° |
| 2026-05-08 20:32 | 49.93398 | 9.13767 | 10128 ft | 305 kts | 289° |
| 2026-05-08 20:33 | 49.93914 | 9.10572 | 9957 ft | 306 kts | 279° |
| 2026-05-08 20:33 | 49.94291 | 9.07347 | 9559 ft | 302 kts | 279° |
| 2026-05-08 20:33 | 49.94655 | 9.04143 | 9166 ft | 300 kts | 279° |
| 2026-05-08 20:33 | 49.95012 | 9.00962 | 8775 ft | 298 kts | 279° |
| 2026-05-08 20:34 | 49.95363 | 8.97797 | 8388 ft | 296 kts | 279° |
| 2026-05-08 20:34 | 49.95711 | 8.94653 | 8008 ft | 295 kts | 279° |
| 2026-05-08 20:34 | 49.96402 | 8.88428 | 7251 ft | 289 kts | 279° |
| 2026-05-08 20:35 | 49.96737 | 8.85410 | 7121 ft | 276 kts | 279° |
| 2026-05-08 20:35 | 49.97058 | 8.82514 | 7133 ft | 270 kts | 279° |
| 2026-05-08 20:35 | 49.97375 | 8.79641 | 7134 ft | 269 kts | 279° |
| 2026-05-08 20:35 | 49.97608 | 8.76755 | 7135 ft | 269 kts | 274° |
| 2026-05-08 20:36 | 49.97651 | 8.73850 | 7137 ft | 269 kts | 268° |
| 2026-05-08 20:36 | 49.97515 | 8.70953 | 7138 ft | 269 kts | 263° |
| 2026-05-08 20:36 | 49.97198 | 8.68101 | 7139 ft | 263 kts | 257° |
| 2026-05-08 20:36 | 49.96733 | 8.65463 | 7136 ft | 245 kts | 252° |
| 2026-05-08 20:37 | 49.96168 | 8.63024 | 7140 ft | 238 kts | 250° |
| 2026-05-08 20:37 | 49.95591 | 8.60623 | 7139 ft | 237 kts | 250° |
| 2026-05-08 20:37 | 49.95014 | 8.58229 | 7139 ft | 237 kts | 250° |
| 2026-05-08 20:37 | 49.94437 | 8.55834 | 7138 ft | 237 kts | 250° |
| 2026-05-08 20:38 | 49.93859 | 8.53442 | 7138 ft | 237 kts | 250° |
| 2026-05-08 20:38 | 49.93280 | 8.51042 | 7037 ft | 238 kts | 250° |
| 2026-05-08 20:38 | 49.92700 | 8.48639 | 6735 ft | 237 kts | 250° |
| 2026-05-08 20:38 | 49.92124 | 8.46251 | 6422 ft | 236 kts | 250° |
| 2026-05-08 20:39 | 49.91548 | 8.43872 | 6103 ft | 235 kts | 250° |
| 2026-05-08 20:39 | 49.90977 | 8.41505 | 5790 ft | 234 kts | 250° |
| 2026-05-08 20:39 | 49.90407 | 8.39142 | 5482 ft | 234 kts | 250° |
| 2026-05-08 20:39 | 49.89836 | 8.36779 | 5182 ft | 234 kts | 249° |
| 2026-05-08 20:40 | 49.89263 | 8.34412 | 4883 ft | 235 kts | 249° |
| 2026-05-08 20:40 | 49.88687 | 8.32040 | 4566 ft | 235 kts | 249° |
| 2026-05-08 20:40 | 49.88108 | 8.29658 | 4256 ft | 236 kts | 249° |
| 2026-05-08 20:40 | 49.87528 | 8.27276 | 4035 ft | 236 kts | 249° |
| 2026-05-08 20:41 | 49.86949 | 8.24888 | 4014 ft | 237 kts | 249° |
| 2026-05-08 20:41 | 49.86369 | 8.22496 | 4016 ft | 237 kts | 249° |
| 2026-05-08 20:41 | 49.85787 | 8.20103 | 4009 ft | 237 kts | 249° |
| 2026-05-08 20:41 | 49.85204 | 8.17709 | 4013 ft | 237 kts | 249° |
| 2026-05-08 20:42 | 49.84618 | 8.15311 | 4016 ft | 238 kts | 248° |
| 2026-05-08 20:42 | 49.84028 | 8.12906 | 4017 ft | 239 kts | 248° |
| 2026-05-08 20:42 | 49.83439 | 8.10499 | 4017 ft | 239 kts | 248° |
| 2026-05-08 20:42 | 49.82856 | 8.08124 | 4013 ft | 239 kts | 248° |
| 2026-05-08 20:43 | 49.82259 | 8.05685 | 4017 ft | 239 kts | 248° |
| 2026-05-08 20:43 | 49.81718 | 8.03289 | 4010 ft | 239 kts | 258° |
| 2026-05-08 20:43 | 49.81811 | 8.00759 | 4010 ft | 239 kts | 290° |
| 2026-05-08 20:43 | 49.82745 | 7.98691 | 4017 ft | 236 kts | 323° |
| 2026-05-08 20:44 | 49.83714 | 7.97888 | 4018 ft | 234 kts | 346° |
| 2026-05-08 20:44 | 49.85307 | 7.97845 | 4018 ft | 230 kts | 18° |
| 2026-05-08 20:44 | 49.87186 | 7.99318 | 4014 ft | 229 kts | 33° |
| 2026-05-08 20:44 | 49.88541 | 8.00618 | 4024 ft | 229 kts | 33° |
| 2026-05-08 20:45 | 49.89449 | 8.01514 | 4022 ft | 229 kts | 37° |
| 2026-05-08 20:45 | 49.90532 | 8.03278 | 4021 ft | 227 kts | 60° |
| 2026-05-08 20:45 | 49.91146 | 8.05516 | 4023 ft | 226 kts | 70° |
| 2026-05-08 20:45 | 49.91702 | 8.07802 | 4019 ft | 227 kts | 70° |
| 2026-05-08 20:46 | 49.92262 | 8.10092 | 4024 ft | 228 kts | 70° |
| 2026-05-08 20:46 | 49.92824 | 8.12392 | 4023 ft | 228 kts | 70° |
| 2026-05-08 20:46 | 49.93386 | 8.14695 | 4022 ft | 228 kts | 70° |
| 2026-05-08 20:46 | 49.93948 | 8.16997 | 4027 ft | 228 kts | 70° |
| 2026-05-08 20:47 | 49.94509 | 8.19299 | 4025 ft | 228 kts | 70° |
| 2026-05-08 20:47 | 49.95068 | 8.21599 | 4028 ft | 228 kts | 70° |
| 2026-05-08 20:47 | 49.95621 | 8.23870 | 4022 ft | 218 kts | 70° |
| 2026-05-08 20:47 | 49.96141 | 8.26009 | 3957 ft | 207 kts | 70° |
| 2026-05-08 20:48 | 49.96646 | 8.28094 | 3746 ft | 205 kts | 70° |
| 2026-05-08 20:48 | 49.97138 | 8.30121 | 3505 ft | 196 kts | 70° |
| 2026-05-08 20:48 | 49.97602 | 8.32035 | 3236 ft | 182 kts | 70° |
| 2026-05-08 20:48 | 49.98035 | 8.33823 | 2993 ft | 173 kts | 70° |
| 2026-05-08 20:49 | 49.98452 | 8.35551 | 2779 ft | 169 kts | 71° |
| 2026-05-08 20:49 | 49.98864 | 8.37254 | 2537 ft | 168 kts | 71° |
| 2026-05-08 20:49 | 49.99260 | 8.38894 | 2289 ft | 153 kts | 71° |
| 2026-05-08 20:49 | 49.99612 | 8.40358 | 2076 ft | 137 kts | 71° |
| 2026-05-08 20:50 | 49.99942 | 8.41694 | 1891 ft | 129 kts | 70° |
| 2026-05-08 20:50 | 50.00253 | 8.42982 | 1747 ft | 126 kts | 71° |
| 2026-05-08 20:50 | 50.00557 | 8.44260 | 1597 ft | 126 kts | 70° |
| 2026-05-08 20:50 | 50.00858 | 8.45534 | 1435 ft | 125 kts | 70° |
| 2026-05-08 20:51 | 50.01169 | 8.46808 | 1263 ft | 126 kts | 69° |
| 2026-05-08 20:51 | 50.01474 | 8.48097 | 1088 ft | 127 kts | 69° |
| 2026-05-08 20:51 | 50.01786 | 8.49385 | 903 ft | 128 kts | 68° |
| 2026-05-08 20:51 | 50.02090 | 8.50658 | 742 ft | 127 kts | 67° |
| 2026-05-08 20:52 | 50.02409 | 8.51959 | 584 ft | 128 kts | 66° |
| 2026-05-08 20:52 | 50.02719 | 8.53251 | 429 ft | 127 kts | 67° |
| 2026-05-08 20:52 | 50.03017 | 8.54490 | 331 ft | 113 kts | 70° |
| 2026-05-08 20:52 | 50.03228 | 8.55398 | 345 ft | 65 kts | 70° |
| 2026-05-08 20:53 | 50.03344 | 8.55880 | 348 ft | 41 kts | 69° |
| 2026-05-08 20:53 | 50.03445 | 8.56220 | 355 ft | 31 kts | 54° |
| 2026-05-08 20:53 | 50.03598 | 8.56450 | 358 ft | 31 kts | 39° |
| 2026-05-08 20:53 | 50.03732 | 8.56624 | 355 ft | 24 kts | 41° |
| 2026-05-08 20:54 | 50.03819 | 8.56840 | 359 ft | 24 kts | 69° |
| 2026-05-08 20:54 | 50.03879 | 8.57093 | 359 ft | 25 kts | 69° |
| 2026-05-08 20:54 | 50.03939 | 8.57343 | 364 ft | 24 kts | 70° |
| 2026-05-08 20:54 | 50.03999 | 8.57594 | 368 ft | 25 kts | 70° |
| 2026-05-08 20:55 | 50.04062 | 8.57856 | 368 ft | 27 kts | 69° |
| 2026-05-08 20:55 | 50.04113 | 8.58068 | 373 ft | 14 kts | 68° |
| 2026-05-08 20:55 | 50.04179 | 8.58163 | 368 ft | 13 kts | 25° |
| 2026-05-08 20:55 | 50.04205 | 8.58183 | 368 ft | 1 kts | 25° |
| 2026-05-08 20:56 | 50.04206 | 8.58183 | 368 ft | 0 kts | 25° |
| 2026-05-08 20:57 | 50.04238 | 8.58201 | 366 ft | 14 kts | 13° |
| 2026-05-08 20:57 | 50.04352 | 8.58166 | 369 ft | 18 kts | 339° |
| 2026-05-08 20:58 | 50.04463 | 8.58102 | 368 ft | 18 kts | 339° |
| 2026-05-08 20:58 | 50.04531 | 8.58020 | 367 ft | 14 kts | 285° |
| 2026-05-08 20:58 | 50.04510 | 8.57881 | 366 ft | 13 kts | 249° |
| 2026-05-08 20:58 | 50.04480 | 8.57755 | 365 ft | 9 kts | 249° |
| 2026-05-08 20:59 | 50.04459 | 8.57670 | 365 ft | 8 kts | 249° |
| 2026-05-08 20:59 | 50.04441 | 8.57593 | 364 ft | 8 kts | 250° |
| 2026-05-08 20:59 | 50.04409 | 8.57458 | 363 ft | 14 kts | 250° |
| 2026-05-08 20:59 | 50.04375 | 8.57317 | 363 ft | 13 kts | 249° |
| 2026-05-08 21:00 | 50.04344 | 8.57185 | 361 ft | 13 kts | 249° |
| 2026-05-08 21:00 | 50.04317 | 8.57073 | 363 ft | 0 kts | 249° |
| 2026-05-08 21:03 | 50.04307 | 8.57034 | 362 ft | 10 kts | 249° |
| 2026-05-08 21:03 | 50.04288 | 8.56953 | 361 ft | 5 kts | 249° |
| 2026-05-08 21:04 | 50.04287 | 8.56948 | 361 ft | 0 kts | 249° |
| 2026-05-08 21:05 | 50.04281 | 8.56921 | 362 ft | 6 kts | 253° |
| 2026-05-08 21:05 | 50.04285 | 8.56858 | 363 ft | 10 kts | 300° |
| 2026-05-08 21:05 | 50.04376 | 8.56837 | 360 ft | 14 kts | 8° |
| 2026-05-08 21:06 | 50.04471 | 8.56862 | 359 ft | 12 kts | 13° |
| 2026-05-08 21:06 | 50.04524 | 8.56817 | 362 ft | 8 kts | 287° |
| 2026-05-08 21:06 | 50.04542 | 8.56749 | 360 ft | 4 kts | 295° |
| 2026-05-08 21:06 | 50.04545 | 8.56739 | 362 ft | 0 kts | 295° |